Terminal Aerodrome Forecast
Issued by NWS

Home | Current Version | Previous Version | Text Only | Print | Product List | Glossary On
Versions: 1 2 3 4 5 6 7 8 9 10 11 12 13 14 15 16 17 18
843
FTUS43 KICT 301332 AAD
TAFSLN
TAF AMD
KSLN 301332Z 3014/0112 29010KT P6SM OVC007
      TEMPO 3014/3016 SCT007 OVC012
     FM301600 27015G22KT P6SM OVC015
     FM301900 28015G23KT P6SM SCT020 BKN030
     FM010100 30011KT P6SM SCT020 BKN035
     FM010600 30012KT P6SM BKN020=

USA.gov is the U.S. government's official web portal to all federal, state and local government web resources and services.